Impacts TAF Board INFO
FOR SITUATIONAL AWARENESS. NOT TO BE USED FOR FLIGHT PLANNING PURPOSES.
IDs:

KMIA - Miami Intl, FL, US

Issued at 1720 UTC 23 Mar 2017
Updated at 2012 UTC 23 Mar 2017
Potential Impact None Slight Moderate High
Time1953Z 23/21Z 23/22Z 23/23Z 24/00Z 24/01Z 24/02Z 24/03Z 24/04Z 24/05Z 24/06Z 24/07Z 24/08Z 24/09Z
Type OBS PRVL PRVL PRVL PRVL PRVL PRVL PRVL PRVL PRVL PRVL PRVL PRVL PRVL
VIS 10 >6 >6 >6 >6 >6 >6 >6 >6 >6 >6 >6 >6 >6
CIG 50 50 50 50 50 50 50 50 50 50 50 50 50 50
Cover BKN BKN BKN BKN BKN BKN BKN BKN BKN BKN BKN BKN BKN BKN
FltCat VFR VFR VFR VFR VFR VFR VFR VFR VFR VFR VFR VFR VFR VFR
WX -- VCTS VCSH VCSH VCSH VCSH VCSH VCSH VCSH VCSH VCSH VCSH VCSH VCSH
WDir 70 70 70 70 70 70 70 70 70 70 70 70 70 70
WSpd 11 14 14 14 14 14 14 14 14 14 14 14 14 14
WGst -- 24 -- -- -- -- -- -- -- -- -- -- -- --

Raw TAF
KMIA 231720Z 2318/2418 07014G24KT P6SM VCTS SCT025CB BKN050
  FM232200 07014KT P6SM VCSH SCT025 BKN050


Raw METAR
KMIA 231953Z 07011KT 10SM SCT030 BKN050 BKN250 26/18 A3016 RMK AO2 LTG DSNT N SLP212 T02560178 $
KMIA 231853Z 05011KT 10SM SCT027 BKN043 BKN055 BKN250 28/18 A3016 RMK AO2 RAE1755 SLP212 P0000 T02780183 $
KMIA 231753Z COR 08010KT 10SM -RA FEW030TCU SCT070 SCT250 26/19 A3017 RMK AO2 SLP216 RB33 TSB17E35 TCU SW AND DSNT SE-SW-NW P0001 60001 T02560189 10295 20194 58006 $
KMIA 231735Z COR 05010G18KT 10SM -RA SCT030TCU BKN040 BKN090 26/18 A3018 RMK AO2 CB DSNT E MOV S TCU OHD-S-SW P0000 T02610178 $
KMIA 231732Z 05009G21KT 10SM TS SCT030CB BKN043 BKN090 28/18 A3018 RMK AO2 OCNL LTGIC AT AP N-E TS AT AP N-E MOV SW T02780183 $

METAR Board
Radar Display
Forecast Discussion

FOR SITUATIONAL AWARENESS. NOT TO BE USED FOR FLIGHT PLANNING PURPOSES.

Page loaded:  20:12 UTC  |   01:12 PM Pacific  |   02:12 PM Mountain  |   03:12 PM Central  |   04:12 PM Eastern

 

ADVISORIES

FORECASTS

FORECASTS

OBSERVATIONS

USER TOOLS

ABOUT US